This is the latest recevied weather packets stored in our database for station/object VA3PC-13. If no packets are shown the sender has not sent any weather packets the latest 10 day(s).
| Time | Temp. | Humidity | Pressure | Rain* | Wind** | Luminosity | Snow |
|---|---|---|---|---|---|---|---|
| 1778233519 | 1.67° C | 83% | 980.1 hPa | 0 mm | - | 0 W/m² | - |
| 1778225718 | 0.56° C | 84% | 980.3 hPa | 0 mm | - | 0 W/m² | - |
| 1778222118 | 1.11° C | 80% | 980.4 hPa | 0 mm | - | 0 W/m² | - |
| 1778218519 | 2.22° C | 76% | 980.4 hPa | 0 mm | - | 0 W/m² | - |
| 1778216120 | 2.78° C | 74% | 980.7 hPa | 0 mm | - | 0 W/m² | - |
| 1778208918 | 3.89° C | 72% | 980.8 hPa | 0 mm | - | 0 W/m² | - |
| 1778208340 | 3.89° C | 75% | 980.9 hPa | 0 mm | - | 0 W/m² | - |
| 1778207120 | 3.89° C | 73% | 980.9 hPa | 0 mm | - | 0 W/m² | - |
| 1778206022 | 4.44° C | 73% | 980.8 hPa | 0 mm | - | 0 W/m² | - |
| 1778205320 | 4.44° C | 72% | 980.9 hPa | 0 mm | - | 0 W/m² | - |
| 1778203520 | 5° C | 69% | 980.8 hPa | 0 mm | - | 0 W/m² | - |
| 1778197519 | 5.56° C | 62% | 980.1 hPa | 0 mm | - | 15 W/m² | - |
| 1778190319 | 5.56° C | 62% | 980.2 hPa | 0 mm | - | 101 W/m² | - |
| 1778188521 | 6.11° C | 59% | 980.1 hPa | 0 mm | - | 106 W/m² | - |
| 1778187939 | 5.56° C | 59% | 979.9 hPa | 0 mm | - | 173 W/m² | - |
| 1778181920 | 5.56° C | 58% | 980.2 hPa | 0 mm | - | 171 W/m² | - |
| 1778166940 | 5° C | 63% | 980.9 hPa | 0 mm | - | 559 W/m² | - |
| 1778162720 | 3.89° C | 63% | 980.8 hPa | 0 mm | - | 276 W/m² | - |
| 1778160337 | 3.33° C | 66% | 981.1 hPa | 0 mm | - | 125 W/m² | - |
| 1778151919 | 2.78° C | 72% | 980.8 hPa | 0 mm | - | 16 W/m² | - |
| 1778151320 | 2.78° C | 73% | 980.8 hPa | 0 mm | - | 13 W/m² | - |
| 1778147139 | 2.78° C | 75% | 980.9 hPa | 0 mm | - | 0 W/m² | - |
| 1778145918 | 3.33° C | 70% | 980.7 hPa | 0 mm | - | 0 W/m² | - |
| 1778144716 | 3.33° C | 71% | 980.7 hPa | 0 mm | - | 0 W/m² | - |
| 1778144119 | 3.33° C | 72% | 980.7 hPa | 0 mm | - | 0 W/m² | - |
* Rain latest hour (hover to see other rain measurements)
** Current wind speed in m/s (hover to see current wind gust speed)